createdAt,value
2024-01-14T00:01:00.224Z,98966.34
2024-01-14T00:02:01.784Z,98963.69
2024-01-14T00:03:03.556Z,98959.59
2024-01-14T00:04:05.224Z,98958.25
2024-01-14T00:05:08.005Z,98949.78
2024-01-14T00:06:09.805Z,98954.59
2024-01-14T00:07:11.920Z,98957.16
2024-01-14T00:08:13.512Z,98954.59
2024-01-14T00:09:15.141Z,98964.00
2024-01-14T00:10:16.740Z,98952.50
2024-01-14T00:11:18.433Z,98950.47
2024-01-14T00:12:20.114Z,98958.69
2024-01-14T00:13:21.654Z,98961.16
2024-01-14T00:14:23.215Z,98951.72
2024-01-14T00:15:24.925Z,98949.16
2024-01-14T00:16:26.770Z,98953.50
2024-01-14T00:17:31.992Z,98948.97
2024-01-14T00:18:35.582Z,98953.38
2024-01-14T00:19:37.315Z,98952.56
2024-01-14T00:20:38.985Z,98951.03
2024-01-14T00:21:40.573Z,98961.81
2024-01-14T00:22:42.102Z,98949.16
2024-01-14T00:23:43.625Z,98952.97
2024-01-14T00:24:45.731Z,98953.53
2024-01-14T00:25:47.333Z,98951.88
2024-01-14T00:26:49.208Z,98962.94
2024-01-14T00:27:50.812Z,98956.94
2024-01-14T00:28:54.351Z,98960.34
2024-01-14T00:29:59.302Z,98955.56
2024-01-14T00:31:01.260Z,98951.75
2024-01-14T00:32:03.556Z,98941.66
2024-01-14T00:33:05.459Z,98949.16
2024-01-14T00:34:07.207Z,98942.47
2024-01-14T00:35:08.977Z,98953.25
2024-01-14T00:36:10.678Z,98944.09
2024-01-14T00:37:12.407Z,98950.09
2024-01-14T00:38:15.372Z,98940.81
2024-01-14T00:39:17.862Z,98946.31
2024-01-14T00:40:19.473Z,98937.16
2024-01-14T00:41:21.459Z,98943.16
2024-01-14T00:42:23.161Z,98938.66
2024-01-14T00:43:24.725Z,98946.31
2024-01-14T00:44:27.720Z,98922.94
2024-01-14T00:45:29.562Z,98928.81
2024-01-14T00:46:32.619Z,98938.91
2024-01-14T00:47:35.415Z,98937.97
2024-01-14T00:48:37.344Z,98937.28
2024-01-14T00:49:38.988Z,98938.50
2024-01-14T00:50:40.647Z,98942.72
2024-01-14T00:51:42.247Z,98946.00
2024-01-14T00:52:43.935Z,98932.09
2024-01-14T00:53:45.443Z,98941.91
2024-01-14T00:54:46.976Z,98938.91
2024-01-14T00:55:48.689Z,98943.81
2024-01-14T00:56:50.256Z,98925.91
2024-01-14T00:57:51.893Z,98933.53
2024-01-14T00:58:53.428Z,98936.13
2024-01-14T00:59:55.052Z,98923.16
2024-01-14T01:00:56.690Z,98933.25
2024-01-14T01:01:58.256Z,98930.94
2024-01-14T01:02:59.934Z,98924.38
2024-01-14T01:04:01.734Z,98930.94
2024-01-14T01:05:05.205Z,98921.66
2024-01-14T01:06:06.918Z,98926.41
2024-01-14T01:07:09.840Z,98928.88
2024-01-14T01:08:12.219Z,98925.47
2024-01-14T01:09:13.813Z,98919.72
2024-01-14T01:10:15.604Z,98917.66
2024-01-14T01:11:20.135Z,98923.38
2024-01-14T01:12:21.746Z,98917.38
2024-01-14T01:13:23.373Z,98915.06
2024-01-14T01:14:24.949Z,98917.22
2024-01-14T01:15:26.574Z,98928.38
2024-01-14T01:16:28.250Z,98914.66
2024-01-14T01:17:29.858Z,98911.53
2024-01-14T01:18:31.655Z,98903.09
2024-01-14T01:19:33.378Z,98906.25
2024-01-14T01:20:35.063Z,98898.03
2024-01-14T01:21:36.628Z,98895.81
2024-01-14T01:22:38.456Z,98899.34
2024-01-14T01:23:40.071Z,98899.63
2024-01-14T01:24:41.701Z,98897.75
2024-01-14T01:25:43.301Z,98901.94
2024-01-14T01:26:44.852Z,98903.88
2024-01-14T01:27:46.413Z,98887.31
2024-01-14T01:28:47.998Z,98894.72
2024-01-14T01:29:49.634Z,98896.72
2024-01-14T01:30:51.632Z,98892.50
2024-01-14T01:31:58.588Z,98904.38
2024-01-14T01:33:06.494Z,98876.69
2024-01-14T01:34:08.276Z,98892.25
2024-01-14T01:35:10.293Z,98893.06
2024-01-14T01:36:11.978Z,98889.78
2024-01-14T01:37:13.732Z,98884.72
2024-01-14T01:38:15.272Z,98894.97
2024-01-14T01:39:16.867Z,98879.63
2024-01-14T01:40:18.433Z,98888.25
2024-01-14T01:41:20.653Z,98879.69
2024-01-14T01:42:22.255Z,98883.22
2024-01-14T01:43:23.798Z,98869.53
2024-01-14T01:44:25.584Z,98873.03
2024-01-14T01:45:27.292Z,98881.19
2024-01-14T01:46:28.963Z,98870.50
2024-01-14T01:47:31.528Z,98870.09
2024-01-14T01:48:34.484Z,98873.78
2024-01-14T01:49:36.901Z,98865.56
2024-01-14T01:50:38.609Z,98867.09
2024-01-14T01:51:43.377Z,98871.44
2024-01-14T01:52:45.739Z,98867.09
2024-01-14T01:53:47.472Z,98864.63
2024-01-14T01:54:50.533Z,98860.28
2024-01-14T01:55:53.904Z,98855.00
2024-01-14T01:56:56.779Z,98859.34
2024-01-14T01:57:58.764Z,98856.88
2024-01-14T01:59:01.218Z,98866.97
2024-01-14T02:00:04.178Z,98865.34
2024-01-14T02:01:07.172Z,98861.22
2024-01-14T02:02:09.495Z,98855.22
2024-01-14T02:03:12.729Z,98858.28
2024-01-14T02:04:17.646Z,98851.16
2024-01-14T02:05:22.772Z,98865.84
2024-01-14T02:06:25.356Z,98860.22
2024-01-14T02:07:27.484Z,98851.84
2024-01-14T02:08:29.009Z,98853.84
2024-01-14T02:09:30.996Z,98869.25
2024-01-14T02:10:32.656Z,98857.38
2024-01-14T02:11:38.143Z,98850.13
2024-01-14T02:12:39.677Z,98860.13
2024-01-14T02:13:41.278Z,98858.50
2024-01-14T02:14:42.975Z,98859.19
2024-01-14T02:15:44.495Z,98857.72
2024-01-14T02:16:46.024Z,98847.59
2024-01-14T02:17:47.696Z,98851.31
2024-01-14T02:18:49.418Z,98844.16
2024-01-14T02:19:51.286Z,98853.72
2024-01-14T02:20:53.002Z,98845.28
2024-01-14T02:22:22.995Z,98843.50
2024-01-14T02:23:28.210Z,98839.56
2024-01-14T02:24:31.565Z,98856.56
2024-01-14T02:25:33.409Z,98832.75
2024-01-14T02:26:35.247Z,98849.91
2024-01-14T02:27:37.218Z,98839.78
2024-01-14T02:28:39.052Z,98849.31
2024-01-14T02:29:41.600Z,98834.94
2024-01-14T02:30:45.119Z,98841.63
2024-01-14T02:31:47.182Z,98833.47
2024-01-14T02:32:50.002Z,98844.91
2024-01-14T02:33:51.871Z,98840.91
2024-01-14T02:34:53.463Z,98841.84
2024-01-14T02:35:55.119Z,98839.41
2024-01-14T02:36:56.899Z,98833.91
2024-01-14T02:37:58.459Z,98840.28
2024-01-14T02:39:00.236Z,98835.69
2024-01-14T02:40:01.827Z,98839.50
2024-01-14T02:41:03.384Z,98840.09
2024-01-14T02:42:05.145Z,98834.81
2024-01-14T02:43:06.736Z,98835.63
2024-01-14T02:44:08.327Z,98818.16
2024-01-14T02:45:10.192Z,98818.97
2024-01-14T02:46:11.759Z,98827.06
2024-01-14T02:47:13.482Z,98832.94
2024-01-14T02:48:15.132Z,98836.44
2024-01-14T02:49:16.950Z,98826.59
2024-01-14T02:50:18.692Z,98833.88
2024-01-14T02:51:22.575Z,98835.28
2024-01-14T02:52:25.113Z,98843.75
2024-01-14T02:53:26.780Z,98840.47
2024-01-14T02:54:28.413Z,98829.44
2024-01-14T02:55:29.988Z,98828.25
2024-01-14T02:56:31.598Z,98836.94
2024-01-14T02:57:34.359Z,98829.06
2024-01-14T02:58:35.971Z,98823.13
2024-01-14T02:59:39.025Z,98832.75
2024-01-14T03:00:40.768Z,98829.22
2024-01-14T03:01:48.754Z,98826.22
2024-01-14T03:02:50.366Z,98826.47
2024-01-14T03:03:52.103Z,98834.69
2024-01-14T03:04:53.764Z,98822.50
2024-01-14T03:05:55.679Z,98818.88
2024-01-14T03:06:57.640Z,98826.13
2024-01-14T03:07:59.460Z,98822.16
2024-01-14T03:09:01.039Z,98811.38
2024-01-14T03:10:02.994Z,98819.00
2024-01-14T03:11:05.652Z,98815.72
2024-01-14T03:12:07.305Z,98816.88
2024-01-14T03:13:09.034Z,98820.16
2024-01-14T03:14:10.610Z,98820.75
2024-01-14T03:15:12.536Z,98812.06
2024-01-14T03:16:14.150Z,98810.19
2024-01-14T03:17:15.712Z,98819.19
2024-01-14T03:18:17.474Z,98802.78
2024-01-14T03:19:19.560Z,98819.88
2024-01-14T03:20:21.308Z,98826.47
2024-01-14T03:21:22.983Z,98816.47
2024-01-14T03:22:24.722Z,98826.69
2024-01-14T03:23:26.228Z,98831.16
2024-01-14T03:24:27.948Z,98814.13
2024-01-14T03:25:29.686Z,98822.47
2024-01-14T03:26:31.265Z,98821.88
2024-01-14T03:27:32.978Z,98826.78
2024-01-14T03:28:34.595Z,98827.59
2024-01-14T03:29:36.163Z,98818.00
2024-01-14T03:30:37.819Z,98822.94
2024-01-14T03:31:39.450Z,98825.25
2024-01-14T03:32:41.669Z,98822.81
2024-01-14T03:33:44.420Z,98827.81
2024-01-14T03:34:46.096Z,98813.66
2024-01-14T03:35:47.746Z,98819.72
2024-01-14T03:36:49.330Z,98817.84
2024-01-14T03:37:51.724Z,98817.75
2024-01-14T03:38:53.354Z,98811.06
2024-01-14T03:39:55.256Z,98807.44
2024-01-14T03:40:56.811Z,98813.31
2024-01-14T03:41:58.456Z,98808.50
2024-01-14T03:43:00.057Z,98810.13
2024-01-14T03:44:01.664Z,98804.97
2024-01-14T03:45:03.846Z,98803.78
2024-01-14T03:46:05.528Z,98800.63
2024-01-14T03:47:07.131Z,98808.81
2024-01-14T03:48:08.895Z,98805.28
2024-01-14T03:49:10.586Z,98802.50
2024-01-14T03:50:12.185Z,98800.63
2024-01-14T03:51:13.905Z,98797.34
2024-01-14T03:52:15.630Z,98792.16
2024-01-14T03:53:17.296Z,98802.38
2024-01-14T03:54:18.828Z,98803.44
2024-01-14T03:55:20.657Z,98796.88
2024-01-14T03:56:22.187Z,98784.00
2024-01-14T03:57:23.785Z,98802.44
2024-01-14T03:58:25.389Z,98788.94
2024-01-14T03:59:26.920Z,98800.41
2024-01-14T04:00:28.513Z,98787.88
2024-01-14T04:01:30.220Z,98794.94
2024-01-14T04:02:31.796Z,98783.19
2024-01-14T04:03:33.519Z,98788.34
2024-01-14T04:04:35.248Z,98794.47
2024-01-14T04:05:36.848Z,98797.88
2024-01-14T04:06:38.642Z,98799.50
2024-01-14T04:07:40.311Z,98796.94
2024-01-14T04:08:41.864Z,98802.69
2024-01-14T04:09:43.452Z,98802.78
2024-01-14T04:10:45.074Z,98794.91
2024-01-14T04:11:46.713Z,98795.88
2024-01-14T04:12:48.310Z,98796.69
2024-01-14T04:13:49.854Z,98797.47
2024-01-14T04:14:51.429Z,98790.44
2024-01-14T04:15:53.183Z,98790.69
2024-01-14T04:16:54.802Z,98780.84
2024-01-14T04:17:56.419Z,98787.75
2024-01-14T04:18:58.266Z,98794.25
2024-01-14T04:20:01.158Z,98788.47
2024-01-14T04:21:02.794Z,98786.59
2024-01-14T04:22:04.819Z,98786.47
2024-01-14T04:23:06.387Z,98774.28
2024-01-14T04:24:09.106Z,98792.22
2024-01-14T04:25:10.791Z,98784.97
2024-01-14T04:26:12.317Z,98788.13
2024-01-14T04:27:14.094Z,98792.47
2024-01-14T04:28:15.702Z,98788.47
2024-01-14T04:29:17.227Z,98793.50
2024-01-14T04:30:18.905Z,98794.91
2024-01-14T04:31:21.090Z,98797.16
2024-01-14T04:32:22.688Z,98794.69
2024-01-14T04:33:24.626Z,98792.81
2024-01-14T04:34:26.356Z,98791.63
2024-01-14T04:35:27.921Z,98784.13
2024-01-14T04:36:30.404Z,98795.59
2024-01-14T04:37:32.873Z,98783.63
2024-01-14T04:38:34.515Z,98798.88
2024-01-14T04:39:36.166Z,98792.56
2024-01-14T04:40:37.814Z,98794.91
2024-01-14T04:41:39.965Z,98802.44
2024-01-14T04:42:41.752Z,98798.44
2024-01-14T04:43:43.365Z,98802.44
2024-01-14T04:44:44.935Z,98804.06
2024-01-14T04:45:46.490Z,98800.44
2024-01-14T04:46:48.026Z,98796.34
2024-01-14T04:47:49.736Z,98793.03
2024-01-14T04:48:51.638Z,98803.97
2024-01-14T04:49:53.421Z,98797.75
2024-01-14T04:50:55.141Z,98800.19
2024-01-14T04:51:56.760Z,98801.84
2024-01-14T04:52:58.361Z,98808.63
2024-01-14T04:54:00.039Z,98811.09
2024-01-14T04:55:01.627Z,98805.91
2024-01-14T04:56:11.121Z,98797.47
2024-01-14T04:57:12.726Z,98805.56
2024-01-14T04:58:14.316Z,98816.59
2024-01-14T04:59:16.084Z,98815.78
2024-01-14T05:00:17.778Z,98808.16
2024-01-14T05:01:19.404Z,98810.63
2024-01-14T05:02:21.049Z,98819.78
2024-01-14T05:03:23.068Z,98811.66
2024-01-14T05:04:24.950Z,98818.78
2024-01-14T05:05:26.630Z,98815.41
2024-01-14T05:06:28.268Z,98801.81
2024-01-14T05:07:29.958Z,98810.00
2024-01-14T05:08:31.580Z,98809.88
2024-01-14T05:09:33.368Z,98797.25
2024-01-14T05:10:35.001Z,98799.41
2024-01-14T05:11:36.579Z,98797.41
2024-01-14T05:12:38.315Z,98798.72
2024-01-14T05:13:39.943Z,98800.78
2024-01-14T05:14:41.461Z,98799.66
2024-01-14T05:15:43.200Z,98803.41
2024-01-14T05:16:44.832Z,98797.53
2024-01-14T05:17:47.037Z,98794.00
2024-01-14T05:18:48.801Z,98783.56
2024-01-14T05:19:50.479Z,98801.59
2024-01-14T05:20:52.143Z,98799.63
2024-01-14T05:21:54.619Z,98786.94
2024-01-14T05:22:56.315Z,98794.25
2024-01-14T05:23:58.089Z,98800.69
2024-01-14T05:24:59.726Z,98792.72
2024-01-14T05:26:04.712Z,98799.72
2024-01-14T05:27:06.270Z,98786.00
2024-01-14T05:28:07.868Z,98786.50
2024-01-14T05:29:09.397Z,98783.78
2024-01-14T05:30:12.325Z,98787.66
2024-01-14T05:31:14.204Z,98771.81
2024-01-14T05:32:17.628Z,98775.91
2024-01-14T05:33:19.268Z,98785.06
2024-01-14T05:34:21.034Z,98778.16
2024-01-14T05:35:22.733Z,98790.03
2024-01-14T05:36:24.331Z,98783.34
2024-01-14T05:37:25.894Z,98785.69
2024-01-14T05:38:27.526Z,98789.53
2024-01-14T05:39:29.147Z,98787.88
2024-01-14T05:40:30.729Z,98790.94
2024-01-14T05:41:32.995Z,98781.66
2024-01-14T05:42:34.750Z,98773.34
2024-01-14T05:43:36.312Z,98775.44
2024-01-14T05:44:37.882Z,98775.69
2024-01-14T05:45:40.671Z,98767.38
2024-01-14T05:46:42.357Z,98775.38
2024-01-14T05:47:43.960Z,98772.63
2024-01-14T05:48:45.713Z,98775.72
2024-01-14T05:49:47.453Z,98767.38
2024-01-14T05:50:49.112Z,98776.88
2024-01-14T05:51:51.094Z,98774.91
2024-01-14T05:52:52.622Z,98749.84
2024-01-14T05:53:54.238Z,98769.75
2024-01-14T05:54:55.804Z,98764.63
2024-01-14T05:55:59.084Z,98759.22
2024-01-14T05:57:01.338Z,98760.53
2024-01-14T05:58:02.997Z,98756.88
2024-01-14T05:59:04.746Z,98762.63
2024-01-14T06:00:07.350Z,98762.84
2024-01-14T06:01:09.222Z,98768.63
2024-01-14T06:02:11.002Z,98761.47
2024-01-14T06:03:12.620Z,98764.41
2024-01-14T06:04:14.304Z,98766.75
2024-01-14T06:05:17.906Z,98760.06
2024-01-14T06:06:20.893Z,98760.03
2024-01-14T06:07:23.652Z,98753.47
2024-01-14T06:08:25.283Z,98750.41
2024-01-14T06:09:26.951Z,98749.94
2024-01-14T06:10:29.885Z,98749.69
2024-01-14T06:11:31.962Z,98751.91
2024-01-14T06:12:33.684Z,98741.81
2024-01-14T06:13:35.417Z,98753.06
2024-01-14T06:14:37.590Z,98746.81
2024-01-14T06:15:39.260Z,98747.78
2024-01-14T06:16:40.898Z,98738.41
2024-01-14T06:17:42.435Z,98751.75
2024-01-14T06:18:44.150Z,98751.75
2024-01-14T06:19:46.390Z,98751.75
2024-01-14T06:20:49.797Z,98747.78
2024-01-14T06:21:51.547Z,98765.81
2024-01-14T06:22:53.079Z,98754.69
2024-01-14T06:23:54.653Z,98752.81
2024-01-14T06:24:56.372Z,98755.94
2024-01-14T06:25:57.990Z,98754.56
2024-01-14T06:26:59.648Z,98755.69
2024-01-14T06:28:03.748Z,98763.91
2024-01-14T06:29:05.363Z,98769.06
2024-01-14T06:30:08.443Z,98767.97
2024-01-14T06:31:10.210Z,98758.75
2024-01-14T06:32:11.884Z,98769.97
2024-01-14T06:33:14.164Z,98758.00
2024-01-14T06:34:15.944Z,98761.00
2024-01-14T06:35:19.014Z,98763.34
2024-01-14T06:36:21.057Z,98764.63
2024-01-14T06:37:22.675Z,98756.66
2024-01-14T06:38:24.317Z,98777.66
2024-01-14T06:39:25.854Z,98774.16
2024-01-14T06:40:32.164Z,98780.00
2024-01-14T06:41:41.053Z,98783.41
2024-01-14T06:42:42.646Z,98777.44
2024-01-14T06:43:44.264Z,98786.66
2024-01-14T06:44:45.824Z,98784.22
2024-01-14T06:45:47.434Z,98778.25
2024-01-14T06:46:49.649Z,98783.72
2024-01-14T06:47:51.411Z,98792.75
2024-01-14T06:48:53.128Z,98769.88
2024-01-14T06:50:03.524Z,98777.72
2024-01-14T06:51:12.308Z,98791.41
2024-01-14T06:52:13.974Z,98797.03
2024-01-14T06:53:15.578Z,98785.31
2024-01-14T06:54:18.961Z,98787.78
2024-01-14T06:55:22.360Z,98792.56
2024-01-14T06:56:23.891Z,98789.06
2024-01-14T06:57:25.489Z,98780.19
2024-01-14T06:58:27.016Z,98781.03
2024-01-14T06:59:28.626Z,98712.09
2024-01-14T07:00:31.839Z,98778.78
2024-01-14T07:01:33.494Z,98777.84
2024-01-14T07:02:35.538Z,98778.53
2024-01-14T07:03:37.150Z,98775.78
2024-01-14T07:04:39.135Z,98781.16
2024-01-14T07:05:41.020Z,98773.16
2024-01-14T07:06:42.946Z,98756.25
2024-01-14T07:07:45.684Z,98752.47
2024-01-14T07:08:47.343Z,98758.78
2024-01-14T07:09:48.977Z,98763.56
2024-01-14T07:10:50.524Z,98757.44
2024-01-14T07:11:52.172Z,98761.03
2024-01-14T07:12:53.854Z,98768.00
2024-01-14T07:13:55.478Z,98753.50
2024-01-14T07:14:57.602Z,98755.16
2024-01-14T07:15:59.268Z,98757.94
2024-01-14T07:17:01.586Z,98751.75
2024-01-14T07:18:03.726Z,98750.69
2024-01-14T07:19:05.878Z,98749.88
2024-01-14T07:20:08.643Z,98743.84
2024-01-14T07:21:12.240Z,98747.31
2024-01-14T07:22:13.954Z,98747.19
2024-01-14T07:23:41.865Z,98743.84
2024-01-14T07:24:37.919Z,98746.25
2024-01-14T07:25:39.467Z,98742.78
2024-01-14T07:26:41.072Z,98747.75
2024-01-14T07:27:42.840Z,98745.13
2024-01-14T07:28:45.132Z,98747.06
2024-01-14T07:29:46.691Z,98755.28
2024-01-14T07:30:48.418Z,98747.34
2024-01-14T07:31:50.361Z,98748.44
2024-01-14T07:32:52.002Z,98745.56
2024-01-14T07:33:54.249Z,98736.47
2024-01-14T07:34:56.224Z,98729.50
2024-01-14T07:35:57.789Z,98739.72
2024-01-14T07:37:00.631Z,98731.22
2024-01-14T07:38:02.181Z,98733.69
2024-01-14T07:39:05.904Z,98738.81
2024-01-14T07:40:08.184Z,98739.03
2024-01-14T07:41:13.950Z,98741.63
2024-01-14T07:42:16.490Z,98740.16
2024-01-14T07:43:18.377Z,98740.13
2024-01-14T07:44:20.021Z,98728.00
2024-01-14T07:45:21.650Z,98734.94
2024-01-14T07:46:23.286Z,98734.28
2024-01-14T07:47:24.995Z,98724.91
2024-01-14T07:48:27.744Z,98730.75
2024-01-14T07:49:29.818Z,98725.75
2024-01-14T07:50:31.481Z,98728.44
2024-01-14T07:51:33.148Z,98724.19
2024-01-14T07:52:34.763Z,98719.34
2024-01-14T07:53:36.350Z,98715.69
2024-01-14T07:54:37.968Z,98711.00
2024-01-14T07:55:39.809Z,98707.75
2024-01-14T07:56:41.347Z,98711.53
2024-01-14T07:57:42.976Z,98704.78
2024-01-14T07:58:44.604Z,98706.81
2024-01-14T07:59:46.116Z,98706.78
2024-01-14T08:00:55.538Z,98705.91
2024-01-14T08:02:03.588Z,98706.81
2024-01-14T08:03:05.795Z,98706.91
2024-01-14T08:04:07.448Z,98701.94
2024-01-14T08:05:12.726Z,98699.72
2024-01-14T08:06:21.686Z,98693.63
2024-01-14T08:07:23.380Z,98698.88
2024-01-14T08:08:25.507Z,98699.88
2024-01-14T08:09:27.102Z,98697.31
2024-01-14T08:10:28.755Z,98690.69
2024-01-14T08:11:30.340Z,98693.47
2024-01-14T08:12:31.971Z,98687.69
2024-01-14T08:13:33.614Z,98694.31
2024-01-14T08:14:35.141Z,98696.03
2024-01-14T08:15:45.652Z,98700.22
2024-01-14T08:16:55.500Z,98697.47
2024-01-14T08:17:57.435Z,98691.75
2024-01-14T08:19:00.329Z,98685.34
2024-01-14T08:20:02.097Z,98699.28
2024-01-14T08:21:09.392Z,98694.50
2024-01-14T08:22:10.982Z,98691.44
2024-01-14T08:23:15.432Z,98692.13
2024-01-14T08:24:17.824Z,98693.00
2024-01-14T08:25:19.394Z,98693.16
2024-01-14T08:26:21.301Z,98696.56
2024-01-14T08:27:22.931Z,98690.28
2024-01-14T08:28:25.468Z,98689.84
2024-01-14T08:29:27.104Z,98696.91
2024-01-14T08:30:28.795Z,98687.50
2024-01-14T08:31:30.464Z,98687.09
2024-01-14T08:32:32.554Z,98682.09
2024-01-14T08:33:34.351Z,98675.72
2024-01-14T08:34:36.161Z,98682.84
2024-01-14T08:35:37.820Z,98676.53
2024-01-14T08:36:39.425Z,98675.88
2024-01-14T08:37:52.751Z,98675.94
2024-01-14T08:38:54.357Z,98683.78
2024-01-14T08:39:56.261Z,98674.63
2024-01-14T08:40:57.793Z,98671.81
2024-01-14T08:41:59.416Z,98665.38
2024-01-14T08:43:01.026Z,98682.22
2024-01-14T08:44:07.754Z,98678.81
2024-01-14T08:45:10.016Z,98681.16
2024-01-14T08:46:11.550Z,98675.59
2024-01-14T08:47:13.680Z,98671.00
2024-01-14T08:48:16.453Z,98682.25
2024-01-14T08:49:18.381Z,98673.66
2024-01-14T08:50:20.681Z,98677.31
2024-01-14T08:51:22.267Z,98673.00
2024-01-14T08:52:23.896Z,98672.19
2024-01-14T08:53:25.444Z,98672.22
2024-01-14T08:54:27.005Z,98678.47
2024-01-14T08:55:29.870Z,98681.25
2024-01-14T08:56:31.466Z,98677.78
2024-01-14T08:57:33.168Z,98670.63
2024-01-14T08:58:34.785Z,98675.88
2024-01-14T08:59:36.409Z,98675.78
2024-01-14T09:00:40.477Z,98670.81
2024-01-14T09:01:42.276Z,98680.16
2024-01-14T09:02:43.872Z,98673.91
2024-01-14T09:03:45.509Z,98680.56
2024-01-14T09:04:47.110Z,98681.97
2024-01-14T09:05:48.751Z,98687.38
2024-01-14T09:06:50.360Z,98678.16
2024-01-14T09:07:51.985Z,98677.19
2024-01-14T09:08:53.502Z,98682.19
2024-01-14T09:09:55.201Z,98669.72
2024-01-14T09:10:56.732Z,98673.41
2024-01-14T09:11:58.336Z,98648.50
2024-01-14T09:12:59.917Z,98675.25
2024-01-14T09:14:01.528Z,98669.47
2024-01-14T09:15:03.229Z,98665.91
2024-01-14T09:16:06.923Z,98658.03
2024-01-14T09:17:08.618Z,98649.81
2024-01-14T09:18:10.541Z,98646.97
2024-01-14T09:19:13.806Z,98640.94
2024-01-14T09:20:15.789Z,98644.50
2024-01-14T09:21:18.199Z,98639.09
2024-01-14T09:22:19.782Z,98631.78
2024-01-14T09:23:21.355Z,98634.56
2024-01-14T09:24:23.723Z,98629.34
2024-01-14T09:25:25.285Z,98630.34
2024-01-14T09:26:26.906Z,98630.09
2024-01-14T09:27:31.758Z,98619.56
2024-01-14T09:28:34.180Z,98624.81
2024-01-14T09:29:35.739Z,98621.00
2024-01-14T09:30:37.430Z,98620.91
2024-01-14T09:31:39.068Z,98614.94
2024-01-14T09:32:40.790Z,98614.50
2024-01-14T09:33:44.687Z,98615.47
2024-01-14T09:34:46.467Z,98605.31
2024-01-14T09:35:48.175Z,98608.53
2024-01-14T09:36:49.787Z,98602.81
2024-01-14T09:37:51.589Z,98605.41
2024-01-14T09:38:53.400Z,98595.19
2024-01-14T09:39:54.958Z,98591.59
2024-01-14T09:41:14.633Z,98594.50
2024-01-14T09:42:33.556Z,98590.66
2024-01-14T09:43:38.846Z,98584.31
2024-01-14T09:44:41.977Z,98582.66
2024-01-14T09:45:47.368Z,98587.09
2024-01-14T09:46:50.068Z,98580.44
2024-01-14T09:47:51.792Z,98585.22
2024-01-14T09:48:56.130Z,98580.66
2024-01-14T09:50:00.496Z,98581.25
2024-01-14T09:51:04.852Z,98587.66
2024-01-14T09:52:08.323Z,98585.53
2024-01-14T09:53:12.557Z,98595.41
2024-01-14T09:54:14.278Z,98592.75
2024-01-14T09:55:16.349Z,98592.47
2024-01-14T09:56:18.722Z,98593.00
2024-01-14T09:57:21.742Z,98595.50
2024-01-14T09:58:24.271Z,98589.53
2024-01-14T09:59:27.147Z,98582.78
2024-01-14T10:00:30.662Z,98581.44
2024-01-14T10:01:33.417Z,98564.53
2024-01-14T10:02:35.423Z,98579.66
2024-01-14T10:03:37.322Z,98577.78
2024-01-14T10:04:42.412Z,98571.59
2024-01-14T10:05:45.408Z,98575.22
2024-01-14T10:06:48.759Z,98564.47
2024-01-14T10:07:50.702Z,98558.88
2024-01-14T10:08:52.353Z,98570.81
2024-01-14T10:09:54.167Z,98573.19
2024-01-14T10:10:58.202Z,98555.88
2024-01-14T10:12:00.531Z,98560.78
2024-01-14T10:13:04.409Z,98557.91
2024-01-14T10:14:06.012Z,98568.72
2024-01-14T10:15:08.050Z,98562.50
2024-01-14T10:16:49.580Z,98561.44
2024-01-14T10:17:35.123Z,98561.69
2024-01-14T10:18:38.363Z,98550.97
2024-01-14T10:19:40.445Z,98538.59
2024-01-14T10:20:42.079Z,98538.16
2024-01-14T10:21:43.813Z,98541.81
2024-01-14T10:22:47.152Z,98534.06
2024-01-14T10:23:48.991Z,98534.59
2024-01-14T10:24:54.939Z,98541.72
2024-01-14T10:26:02.724Z,98531.13
2024-01-14T10:27:06.413Z,98538.03
2024-01-14T10:28:08.608Z,98531.00
2024-01-14T10:29:10.288Z,98538.16
2024-01-14T10:30:14.256Z,98547.03
2024-01-14T10:31:17.174Z,98544.47
2024-01-14T10:32:20.630Z,98534.44
2024-01-14T10:33:25.735Z,98529.94
2024-01-14T10:34:28.961Z,98525.84
2024-01-14T10:35:31.978Z,98523.31
2024-01-14T10:36:34.677Z,98514.25
2024-01-14T10:37:36.686Z,98512.16
2024-01-14T10:38:38.376Z,98516.72
2024-01-14T10:39:41.571Z,98515.22
2024-01-14T10:40:43.248Z,98516.25
2024-01-14T10:41:45.010Z,98513.84
2024-01-14T10:42:47.022Z,98512.38
2024-01-14T10:43:48.715Z,98522.91
2024-01-14T10:44:50.410Z,98517.19
2024-01-14T10:45:55.314Z,98508.66
2024-01-14T10:47:00.267Z,98520.13
2024-01-14T10:48:11.494Z,98514.44
2024-01-14T10:49:13.877Z,98502.31
2024-01-14T10:50:19.204Z,98510.13
2024-01-14T10:51:22.389Z,98513.19
2024-01-14T10:52:27.741Z,98503.88
2024-01-14T10:53:51.496Z,98498.09
2024-01-14T10:54:57.307Z,98508.84
2024-01-14T10:56:08.160Z,98504.34
2024-01-14T10:57:15.474Z,98509.88
2024-01-14T10:58:23.662Z,98503.88
2024-01-14T10:59:28.375Z,98502.59
2024-01-14T11:00:35.781Z,98504.94
2024-01-14T11:01:45.319Z,98496.75
2024-01-14T11:02:47.185Z,98501.47
2024-01-14T11:03:51.456Z,98503.78
2024-01-14T11:04:55.798Z,98503.41
2024-01-14T11:05:57.606Z,98507.34
2024-01-14T11:06:59.350Z,98497.91
2024-01-14T11:08:04.921Z,98495.19
2024-01-14T11:09:06.781Z,98485.13
2024-01-14T11:10:15.876Z,98486.94
2024-01-14T11:11:23.238Z,98487.78
2024-01-14T11:12:57.072Z,98492.25
2024-01-14T11:14:09.028Z,98496.63
2024-01-14T11:15:20.684Z,98494.78
2024-01-14T11:16:29.670Z,98493.22
2024-01-14T11:17:59.104Z,98490.47
2024-01-14T11:19:20.905Z,98488.38
2024-01-14T11:20:44.896Z,98480.63
2024-01-14T11:22:30.894Z,98481.88
2024-01-14T11:23:37.083Z,98480.72
2024-01-14T11:24:38.863Z,98475.69
2024-01-14T11:25:47.136Z,98477.84
2024-01-14T11:26:49.060Z,98476.13
2024-01-14T11:27:52.318Z,98474.75
2024-01-14T11:28:55.771Z,98479.81
2024-01-14T11:29:59.784Z,98482.13
2024-01-14T11:31:04.024Z,98487.53
2024-01-14T11:32:06.751Z,98486.97
2024-01-14T11:33:31.130Z,98481.97
2024-01-14T11:34:47.986Z,98482.13
2024-01-14T11:35:49.960Z,98469.31
2024-01-14T11:36:55.473Z,98474.03
2024-01-14T11:37:57.611Z,98467.13
2024-01-14T11:39:06.532Z,98475.88
2024-01-14T11:40:08.642Z,98472.53
2024-01-14T11:41:32.933Z,98471.59
2024-01-14T11:43:04.378Z,98467.66
2024-01-14T11:44:10.903Z,98454.44
2024-01-14T11:45:39.525Z,98464.22
2024-01-14T11:46:42.128Z,98470.31
2024-01-14T11:47:46.516Z,98459.72
2024-01-14T11:48:48.758Z,98460.31
2024-01-14T11:49:53.418Z,98460.19
2024-01-14T11:50:56.526Z,98454.63
2024-01-14T11:52:07.514Z,98460.38
2024-01-14T11:53:09.292Z,98456.50
2024-01-14T11:54:13.796Z,98452.19
2024-01-14T11:55:18.195Z,98447.56
2024-01-14T11:56:30.279Z,98451.81
2024-01-14T11:57:33.707Z,98449.47
2024-01-14T11:58:35.373Z,98440.06
2024-01-14T11:59:42.249Z,98445.56
2024-01-14T12:00:48.916Z,98441.41
2024-01-14T12:01:50.672Z,98434.63
2024-01-14T12:03:08.371Z,98430.28
2024-01-14T12:04:11.014Z,98428.91
2024-01-14T12:05:30.512Z,98423.50
2024-01-14T12:06:43.228Z,98413.94
2024-01-14T12:07:45.754Z,98405.63
2024-01-14T12:08:47.359Z,98409.38
2024-01-14T12:09:56.745Z,98416.75
2024-01-14T12:11:02.490Z,98403.41
2024-01-14T12:12:07.707Z,98403.94
2024-01-14T12:13:09.940Z,98397.81
2024-01-14T12:14:11.948Z,98395.38
2024-01-14T12:15:15.371Z,98397.75
2024-01-14T12:16:17.064Z,98400.78
2024-01-14T12:17:18.767Z,98398.63
2024-01-14T12:18:20.382Z,98393.69
2024-01-14T12:19:22.097Z,98395.53
2024-01-14T12:20:24.976Z,98386.16
2024-01-14T12:21:32.942Z,98387.00